Terminal Aerodrome Forecast
Issued by NWS Sterling, VA

Current Version | Previous Version | Graphics & Text | Print | Product List | Glossary On
Versions: 1 2 3 4 5 6 7 8 9 10 11 12 13 14 15 16 17 18 19 20 21 22 23 24
000
FTUS41 KLWX 202341
TAFDCA
TAF
KDCA 202341Z 2100/2124 15004KT P6SM OVC010
     FM210300 VRB03KT 5SM -DZ BR OVC008
     FM210800 00000KT 2SM -DZ BR SCT003 OVC006
     FM211500 16004KT 5SM BR OVC008
     FM211700 17005KT P6SM SCT008 OVC015=

USA.gov is the U.S. government's official web portal to all federal, state and local government web resources and services.